Time;durP1;ratioP1;P1;durP2;ratioP2;P2;SDS_P1;SDS_P2;PMS_P1;PMS_P2;Temp;Humidity;BMP_temperature;BMP_pressure;BME280_temperature;BME280_humidity;BME280_pressure;Samples;Min_cycle;Max_cycle;Signal;HPM_P1;HPM_P2
2022/03/21 00:00:55;;;;;;;;;;;;;;;8.82;28.61;102781.91;5042232;28;19917;-79
2022/03/21 00:03:39;;;;;;;;;;;;;;;8.63;29.17;102780.59;5053158;28;19913;-79
2022/03/21 00:06:24;;;;;;;;;;;;;;;8.18;29.89;102783.41;5053638;28;19916;-80
2022/03/21 00:09:08;;;;;;;;;;;;;;;8.62;29.66;102786.25;5052739;28;20377;-80
2022/03/21 00:11:53;;;;;;;;;;;;;;;8.75;29.83;102785.88;5054610;28;19917;-78
2022/03/21 00:14:41;;;;;;;;;;;;;;;8.81;32.76;102793.81;5038271;28;19913;-78
2022/03/21 00:17:25;;;;;;;;;;;;;;;8.77;30.54;102789.97;5042093;28;19913;-78
2022/03/21 00:20:11;;;;;;;;;;;;;;;8.76;30.47;102784.81;5040200;28;19920;-79
2022/03/21 00:22:56;;;;;;;;;;;;;;;8.83;30.50;102786.28;5053344;28;19912;-79
2022/03/21 00:25:40;;;;;;;;;;;;;;;8.87;30.65;102789.28;5033683;28;19913;-79
2022/03/21 00:28:25;;;;;;;;;;;;;;;8.92;29.36;102781.22;5033904;28;19913;-79
2022/03/21 00:31:09;;;;;;;;;;;;;;;8.96;28.85;102774.19;5019439;28;19913;-80
2022/03/21 00:33:54;;;;;;;;;;;;;;;8.99;28.81;102773.69;5035212;28;19913;-78
2022/03/21 00:36:38;;;;;;;;;;;;;;;8.96;28.29;102779.63;5053263;28;19913;-79
2022/03/21 00:39:23;;;;;;;;;;;;;;;8.94;28.21;102779.03;5052523;28;19916;-78
2022/03/21 00:42:10;;;;;;;;;;;;;;;8.83;28.72;102780.03;5054621;28;19916;-79
2022/03/21 00:44:57;;;;;;;;;;;;;;;8.82;27.85;102781.91;5059793;28;19912;-80
2022/03/21 00:47:43;;;;;;;;;;;;;;;9.04;26.80;102779.16;5040631;28;20282;-78
2022/03/21 00:50:29;;;;;;;;;;;;;;;8.90;26.47;102776.03;5038123;28;20408;-79
2022/03/21 00:53:15;;;;;;;;;;;;;;;8.80;27.01;102773.19;5044133;28;19913;-79
2022/03/21 00:56:00;;;;;;;;;;;;;;;8.67;26.76;102778.19;5038299;28;19913;-80
2022/03/21 00:58:44;;;;;;;;;;;;;;;8.82;25.27;102771.06;5040453;28;19912;-80
2022/03/21 01:01:29;;;;;;;;;;;;;;;8.87;25.47;102770.28;5040849;28;19916;-80
2022/03/21 01:04:14;;;;;;;;;;;;;;;9.07;24.49;102772.41;5052499;28;19913;-80
2022/03/21 01:06:58;;;;;;;;;;;;;;;9.02;24.51;102765.03;5052287;28;19913;-79
2022/03/21 01:09:42;;;;;;;;;;;;;;;9.10;23.71;102761.03;5052384;28;19912;-79
2022/03/21 01:12:27;;;;;;;;;;;;;;;8.97;24.11;102767.69;5039364;28;19912;-79
2022/03/21 01:15:14;;;;;;;;;;;;;;;8.83;24.86;102764.56;5052233;28;19916;-80
2022/03/21 01:17:59;;;;;;;;;;;;;;;8.78;23.83;102761.78;5055373;28;19913;-80
2022/03/21 01:20:43;;;;;;;;;;;;;;;8.74;24.12;102760.63;5038581;28;20397;-80
2022/03/21 01:23:28;;;;;;;;;;;;;;;8.90;24.36;102759.75;5052279;28;19916;-79
2022/03/21 01:26:12;;;;;;;;;;;;;;;8.90;23.99;102757.03;5040970;28;20404;-78
2022/03/21 01:28:57;;;;;;;;;;;;;;;8.84;24.49;102760.75;5039380;28;19912;-81
2022/03/21 01:31:41;;;;;;;;;;;;;;;8.74;25.06;102754.38;5037325;28;19916;-80
2022/03/21 01:34:26;;;;;;;;;;;;;;;8.82;24.98;102749.34;5041759;28;19913;-80
2022/03/21 01:37:10;;;;;;;;;;;;;;;8.80;24.83;102745.25;5040132;28;19913;-79
2022/03/21 01:39:55;;;;;;;;;;;;;;;8.92;24.38;102756.78;5051980;28;19912;-80
2022/03/21 01:42:43;;;;;;;;;;;;;;;8.84;24.38;102749.09;5052483;28;19916;-81
2022/03/21 01:45:28;;;;;;;;;;;;;;;8.95;24.31;102756.28;5040129;28;19913;-79
2022/03/21 01:48:13;;;;;;;;;;;;;;;8.84;24.56;102755.34;5037517;28;20116;-81
2022/03/21 01:50:57;;;;;;;;;;;;;;;8.91;26.24;102747.00;5042261;28;19913;-79
2022/03/21 01:56:46;;;;;;;;;;;;;;;9.08;23.51;102742.31;5051370;28;19913;-79
2022/03/21 01:59:32;;;;;;;;;;;;;;;8.97;23.98;102740.56;5051929;28;19912;-79
2022/03/21 02:02:17;;;;;;;;;;;;;;;9.06;23.57;102740.94;5057838;28;19916;-78
2022/03/21 02:05:01;;;;;;;;;;;;;;;9.08;23.44;102742.31;5043068;28;19912;-79
2022/03/21 02:07:46;;;;;;;;;;;;;;;9.07;23.78;102739.84;5051853;28;19912;-80
2022/03/21 02:10:30;;;;;;;;;;;;;;;9.10;22.99;102745.59;5039708;28;19912;-79
2022/03/21 02:13:15;;;;;;;;;;;;;;;9.10;22.88;102747.47;5043452;28;19912;-80
2022/03/21 02:15:59;;;;;;;;;;;;;;;9.01;23.38;102747.13;5052098;28;20315;-78
2022/03/21 02:18:45;;;;;;;;;;;;;;;9.00;23.18;102757.16;5039417;28;19916;-80
2022/03/21 02:21:48;;;;;;;;;;;;;;;8.94;23.12;102760.88;5051741;28;20293;-78
2022/03/21 02:25:08;;;;;;;;;;;;;;;8.78;23.01;102758.25;5043269;28;19920;-79
2022/03/21 02:27:55;;;;;;;;;;;;;;;8.81;23.53;102747.72;5051120;28;19913;-79
2022/03/21 02:30:42;;;;;;;;;;;;;;;8.81;22.97;102755.03;5040806;28;19913;-78
2022/03/21 02:33:27;;;;;;;;;;;;;;;8.67;24.91;102742.94;5041426;28;19912;-80
2022/03/21 02:36:13;;;;;;;;;;;;;;;8.71;22.74;102749.47;5055109;28;19913;-79
2022/03/21 02:38:58;;;;;;;;;;;;;;;8.58;23.24;102748.78;5041825;28;19913;-78
2022/03/21 02:41:43;;;;;;;;;;;;;;;8.53;22.93;102748.72;5055182;28;19920;-78
2022/03/21 02:44:34;;;;;;;;;;;;;;;8.43;23.37;102745.06;5040729;28;19913;-79
2022/03/21 02:47:19;;;;;;;;;;;;;;;8.39;23.47;102741.19;5060827;28;19912;-79
2022/03/21 02:50:07;;;;;;;;;;;;;;;8.25;24.04;102740.72;5054596;28;20328;-78
2022/03/21 02:52:52;;;;;;;;;;;;;;;8.28;23.89;102748.34;5055006;28;19913;-78
2022/03/21 02:55:39;;;;;;;;;;;;;;;8.28;23.91;102740.19;5044265;28;20366;-79
2022/03/21 02:58:24;;;;;;;;;;;;;;;8.24;24.22;102752.63;5042150;28;19913;-79
2022/03/21 03:01:09;;;;;;;;;;;;;;;8.03;23.86;102747.97;5054219;28;19916;-79
2022/03/21 03:03:54;;;;;;;;;;;;;;;7.81;24.10;102744.38;5044687;28;20300;-79
2022/03/21 03:06:43;;;;;;;;;;;;;;;7.81;24.74;102756.03;5042364;28;19912;-78
2022/03/21 03:09:28;;;;;;;;;;;;;;;7.59;24.56;102752.41;5039963;28;19913;-78
2022/03/21 03:12:13;;;;;;;;;;;;;;;7.62;24.65;102752.75;5044541;28;19913;-78
2022/03/21 03:14:57;;;;;;;;;;;;;;;7.55;24.81;102746.69;5054585;28;19913;-78
2022/03/21 03:17:42;;;;;;;;;;;;;;;7.39;25.57;102742.06;5040625;28;19913;-78
2022/03/21 03:20:26;;;;;;;;;;;;;;;7.33;25.91;102748.44;5045218;28;19913;-80
2022/03/21 03:23:11;;;;;;;;;;;;;;;7.34;25.72;102749.25;5058437;28;19912;-80
2022/03/21 03:26:00;;;;;;;;;;;;;;;7.21;26.52;102745.00;5058175;28;19913;-79
2022/03/21 03:28:45;;;;;;;;;;;;;;;7.33;26.29;102734.91;5056355;28;19913;-79
2022/03/21 03:31:30;;;;;;;;;;;;;;;7.35;26.73;102740.91;5082271;22;19912;-73
2022/03/21 03:34:14;;;;;;;;;;;;;;;7.46;26.30;102748.16;5028968;28;19921;-75
2022/03/21 03:36:59;;;;;;;;;;;;;;;7.25;27.75;102744.25;5026712;28;19913;-75
2022/03/21 03:39:43;;;;;;;;;;;;;;;7.48;27.55;102743.28;5032758;28;19913;-75
2022/03/21 03:42:28;;;;;;;;;;;;;;;7.53;29.94;102748.81;5033812;28;19917;-75
2022/03/21 03:45:13;;;;;;;;;;;;;;;7.43;28.40;102745.09;5027531;28;19917;-75
2022/03/21 03:47:58;;;;;;;;;;;;;;;7.53;28.11;102750.69;5034043;28;20208;-75
2022/03/21 03:50:42;;;;;;;;;;;;;;;7.47;27.66;102749.78;5030650;28;20387;-75
2022/03/21 03:53:27;;;;;;;;;;;;;;;7.42;27.87;102744.28;5033819;28;19913;-76
2022/03/21 03:56:12;;;;;;;;;;;;;;;7.45;26.77;102746.50;5033813;28;19917;-76
2022/03/21 03:58:56;;;;;;;;;;;;;;;7.52;26.63;102752.56;5032922;28;19913;-76
2022/03/21 04:01:41;;;;;;;;;;;;;;;7.56;26.79;102748.31;5037113;28;19917;-77
2022/03/21 04:04:25;;;;;;;;;;;;;;;7.68;26.71;102753.66;5033527;28;19913;-76
2022/03/21 04:07:09;;;;;;;;;;;;;;;7.47;27.70;102754.34;5032887;28;19917;-76
2022/03/21 04:09:54;;;;;;;;;;;;;;;7.39;27.46;102754.78;5033216;28;19913;-76
2022/03/21 04:12:38;;;;;;;;;;;;;;;7.33;28.01;102748.44;5013812;28;19918;-76
2022/03/21 04:15:23;;;;;;;;;;;;;;;7.34;28.80;102751.97;5013535;28;19914;-76
2022/03/21 04:18:07;;;;;;;;;;;;;;;7.39;28.40;102746.66;5013571;28;19914;-76
2022/03/21 04:20:52;;;;;;;;;;;;;;;7.01;29.40;102755.44;5021324;28;19913;-76
2022/03/21 04:23:37;;;;;;;;;;;;;;;6.98;30.27;102748.59;5033369;28;19912;-76
2022/03/21 04:26:21;;;;;;;;;;;;;;;7.06;29.29;102764.44;5037039;28;19921;-76
2022/03/21 04:29:06;;;;;;;;;;;;;;;7.22;29.69;102760.97;5063399;28;19913;-76
2022/03/21 04:31:50;;;;;;;;;;;;;;;7.12;29.83;102755.38;5017583;28;19926;-76
2022/03/21 04:34:35;;;;;;;;;;;;;;;7.07;29.91;102757.16;5013262;28;20292;-76
2022/03/21 04:37:19;;;;;;;;;;;;;;;6.96;30.61;102761.53;5015646;28;20489;-77
2022/03/21 04:40:05;;;;;;;;;;;;;;;6.98;29.46;102756.72;5013755;28;19913;-76
2022/03/21 04:42:49;;;;;;;;;;;;;;;6.63;30.82;102764.94;5032717;28;19921;-76
2022/03/21 04:45:34;;;;;;;;;;;;;;;6.57;32.38;102765.88;5035934;28;19913;-76
2022/03/21 04:48:19;;;;;;;;;;;;;;;6.68;31.71;102766.94;5033267;28;19913;-76
2022/03/21 04:51:04;;;;;;;;;;;;;;;6.72;31.45;102768.91;5028179;28;19917;-76
2022/03/21 04:53:48;;;;;;;;;;;;;;;6.80;30.51;102768.56;5036460;28;19985;-75
2022/03/21 04:56:32;;;;;;;;;;;;;;;6.60;30.65;102764.59;5034716;28;19912;-75
2022/03/21 04:59:17;;;;;;;;;;;;;;;6.66;31.23;102772.56;5033160;28;19913;-75
2022/03/21 05:02:02;;;;;;;;;;;;;;;6.70;31.03;102773.75;5031839;28;20372;-75
2022/03/21 05:04:46;;;;;;;;;;;;;;;6.61;31.09;102780.56;5030785;28;19913;-75
2022/03/21 05:07:31;;;;;;;;;;;;;;;6.84;29.71;102777.00;5032402;28;19939;-76
2022/03/21 05:10:16;;;;;;;;;;;;;;;6.70;31.64;102787.28;5060278;28;19913;-75
2022/03/21 05:13:00;;;;;;;;;;;;;;;6.54;31.06;102788.00;5032392;28;19917;-75
2022/03/21 05:15:45;;;;;;;;;;;;;;;6.67;32.77;102792.31;5032781;28;19913;-75
2022/03/21 05:18:29;;;;;;;;;;;;;;;6.55;32.95;102791.53;5032501;28;20283;-75
2022/03/21 05:21:13;;;;;;;;;;;;;;;6.51;32.83;102791.16;5022337;28;19917;-75
2022/03/21 05:36:14;;;;;;;;;;;;;;;6.55;33.82;102807.75;5013444;28;19913;-74
2022/03/21 05:38:58;;;;;;;;;;;;;;;6.53;34.53;102807.97;5025684;28;19917;-75
2022/03/21 05:41:43;;;;;;;;;;;;;;;6.77;34.68;102808.75;5029629;28;19917;-75
2022/03/21 05:44:27;;;;;;;;;;;;;;;7.05;34.43;102814.22;5032310;28;19913;-75
2022/03/21 05:47:12;;;;;;;;;;;;;;;7.30;31.73;102811.19;5032062;28;19917;-75
2022/03/21 05:49:56;;;;;;;;;;;;;;;7.40;31.22;102811.38;5029689;28;20296;-74
2022/03/21 05:52:41;;;;;;;;;;;;;;;7.62;30.89;102812.31;5012430;28;20284;-74
2022/03/21 05:55:26;;;;;;;;;;;;;;;8.19;30.04;102814.88;5012334;28;19913;-74
2022/03/21 05:58:11;;;;;;;;;;;;;;;8.94;29.68;102817.03;5012398;28;19917;-74
2022/03/21 06:00:56;;;;;;;;;;;;;;;9.73;27.10;102812.75;5025461;28;20375;-76
2022/03/21 06:03:40;;;;;;;;;;;;;;;10.51;25.73;102818.53;5032096;28;19917;-76
2022/03/21 06:06:25;;;;;;;;;;;;;;;11.06;25.38;102812.53;5031949;28;19913;-77
2022/03/21 06:09:09;;;;;;;;;;;;;;;11.53;24.57;102818.63;5037659;28;20376;-76
2022/03/21 06:11:55;;;;;;;;;;;;;;;12.10;23.23;102820.34;5034772;28;19913;-73
2022/03/21 06:14:40;;;;;;;;;;;;;;;12.37;23.80;102817.31;5036138;28;19912;-78
2022/03/21 06:17:24;;;;;;;;;;;;;;;13.53;21.02;102816.84;5035726;28;19913;-75
2022/03/21 06:20:10;;;;;;;;;;;;;;;13.89;21.04;102822.06;5034638;28;19913;-75
2022/03/21 06:22:57;;;;;;;;;;;;;;;14.41;20.08;102821.34;5032335;28;19972;-75
2022/03/21 06:25:41;;;;;;;;;;;;;;;14.80;19.62;102829.38;5038140;28;19912;-76
2022/03/21 06:28:26;;;;;;;;;;;;;;;14.43;20.72;102828.16;5035697;28;19913;-71
2022/03/21 06:31:11;;;;;;;;;;;;;;;15.14;20.42;102830.06;5035518;28;19913;-71
2022/03/21 06:33:55;;;;;;;;;;;;;;;16.39;18.98;102833.88;5036132;28;19917;-71
2022/03/21 06:36:40;;;;;;;;;;;;;;;17.17;18.08;102840.34;5039985;28;19913;-70
2022/03/21 06:39:24;;;;;;;;;;;;;;;17.19;17.91;102838.91;5026350;28;20300;-71
2022/03/21 06:42:11;;;;;;;;;;;;;;;17.97;17.50;102847.88;5028217;28;19917;-71
2022/03/21 06:44:56;;;;;;;;;;;;;;;18.24;17.69;102847.69;5069941;28;20069;-71
2022/03/21 06:47:40;;;;;;;;;;;;;;;18.12;18.05;102850.22;5035795;28;19913;-71
2022/03/21 06:50:25;;;;;;;;;;;;;;;18.50;18.13;102856.94;5035500;28;19912;-71
2022/03/21 06:53:09;;;;;;;;;;;;;;;19.09;17.13;102854.75;5034977;28;19913;-71
2022/03/21 06:55:54;;;;;;;;;;;;;;;19.97;15.92;102864.41;5040916;28;20195;-71
2022/03/21 06:58:38;;;;;;;;;;;;;;;19.40;16.33;102871.22;5035446;28;19913;-71
2022/03/21 07:01:23;;;;;;;;;;;;;;;20.59;14.42;102866.75;5040963;28;19921;-73
2022/03/21 07:04:07;;;;;;;;;;;;;;;18.94;16.43;102869.81;5035027;28;20376;-73
2022/03/21 07:06:51;;;;;;;;;;;;;;;19.57;15.65;102874.81;5034707;28;19932;-74
2022/03/21 07:09:36;;;;;;;;;;;;;;;18.34;15.25;102866.72;5035250;28;19913;-72
2022/03/21 07:12:20;;;;;;;;;;;;;;;19.42;13.94;102877.22;5034924;28;19912;-71
2022/03/21 07:15:05;;;;;;;;;;;;;;;20.57;12.94;102887.59;5040115;28;19989;-71
2022/03/21 07:17:51;;;;;;;;;;;;;;;20.59;12.98;102882.53;5034950;28;19913;-71
2022/03/21 07:20:37;;;;;;;;;;;;;;;21.88;11.79;102881.78;5033691;28;19912;-71
2022/03/21 07:23:21;;;;;;;;;;;;;;;21.67;11.52;102876.25;5034853;28;19921;-72
2022/03/21 07:26:06;;;;;;;;;;;;;;;20.62;12.33;102885.44;5040797;28;19913;-72
2022/03/21 07:28:50;;;;;;;;;;;;;;;20.85;12.25;102877.72;5034811;28;19917;-72
2022/03/21 07:31:34;;;;;;;;;;;;;;;20.68;11.98;102883.28;5034918;28;19913;-72
2022/03/21 07:34:19;;;;;;;;;;;;;;;21.29;11.90;102882.69;5035248;28;19913;-72
2022/03/21 07:37:03;;;;;;;;;;;;;;;20.64;12.06;102883.16;5034592;28;19913;-71
2022/03/21 07:39:48;;;;;;;;;;;;;;;19.44;13.34;102888.75;5034581;28;19912;-71
2022/03/21 07:42:33;;;;;;;;;;;;;;;19.77;13.19;102891.88;5034493;28;19917;-73
2022/03/21 07:48:21;;;;;;;;;;;;;;;20.61;12.68;102899.59;5014602;28;19913;-72
2022/03/21 07:51:07;;;;;;;;;;;;;;;21.21;12.03;102891.06;5034691;28;19914;-71
2022/03/21 07:53:51;;;;;;;;;;;;;;;21.53;11.24;102886.78;5015132;28;19918;-72
2022/03/21 07:56:37;;;;;;;;;;;;;;;21.34;11.28;102890.81;5030704;28;19913;-73
2022/03/21 07:59:21;;;;;;;;;;;;;;;21.44;12.00;102884.06;5035061;28;19917;-72
2022/03/21 08:02:07;;;;;;;;;;;;;;;21.65;11.68;102889.59;5034538;28;19917;-71
2022/03/21 08:04:52;;;;;;;;;;;;;;;21.60;11.64;102887.03;5034454;28;19917;-71
2022/03/21 08:07:36;;;;;;;;;;;;;;;21.41;12.19;102886.69;5032399;28;19913;-71
2022/03/21 08:10:22;;;;;;;;;;;;;;;21.86;11.47;102897.91;5033984;28;19917;-73
2022/03/21 08:13:08;;;;;;;;;;;;;;;21.13;11.66;102884.38;5040552;28;19913;-72
2022/03/21 08:15:53;;;;;;;;;;;;;;;21.09;11.59;102883.44;5034550;28;19913;-72
2022/03/21 08:18:38;;;;;;;;;;;;;;;21.62;11.01;102887.53;5034320;28;19912;-72
2022/03/21 08:21:23;;;;;;;;;;;;;;;20.97;11.84;102885.31;5034212;28;19912;-73
2022/03/21 08:24:08;;;;;;;;;;;;;;;20.97;11.07;102885.31;5034443;28;19916;-72
2022/03/21 08:26:54;;;;;;;;;;;;;;;20.16;11.95;102891.72;5037769;28;19913;-72
2022/03/21 08:29:39;;;;;;;;;;;;;;;19.44;11.69;102883.22;5034149;28;19913;-73
2022/03/21 08:32:24;;;;;;;;;;;;;;;20.00;11.64;102890.59;5033973;28;19913;-73
2022/03/21 08:35:09;;;;;;;;;;;;;;;18.72;12.52;102878.97;5039555;28;19912;-72
2022/03/21 08:37:54;;;;;;;;;;;;;;;20.12;11.98;102884.38;5030931;28;20368;-71
2022/03/21 08:40:38;;;;;;;;;;;;;;;19.63;12.75;102886.53;5032895;28;19913;-72
2022/03/21 08:43:23;;;;;;;;;;;;;;;18.05;13.00;102880.97;5032891;28;19917;-72
2022/03/21 08:46:08;;;;;;;;;;;;;;;17.87;13.38;102880.03;5033355;28;19912;-73
2022/03/21 08:51:55;;;;;;;;;;;;;;;17.18;13.20;102877.69;5033043;28;19921;-72
2022/03/21 08:54:41;;;;;;;;;;;;;;;17.31;13.66;102876.88;5033161;28;19913;-73
2022/03/21 08:57:25;;;;;;;;;;;;;;;17.25;13.79;102878.09;5033605;28;19913;-72
2022/03/21 09:00:10;;;;;;;;;;;;;;;17.41;14.84;102873.91;5032631;28;19916;-71
2022/03/21 09:02:55;;;;;;;;;;;;;;;18.29;13.86;102875.94;5032868;28;19917;-72
2022/03/21 09:05:40;;;;;;;;;;;;;;;18.12;13.36;102875.03;5032253;28;19912;-72
2022/03/21 09:08:24;;;;;;;;;;;;;;;18.45;13.01;102873.59;5028706;28;19913;-72
2022/03/21 09:11:09;;;;;;;;;;;;;;;17.98;13.58;102868.78;5026425;28;19913;-72
2022/03/21 09:13:54;;;;;;;;;;;;;;;17.88;13.45;102870.63;5023794;28;20284;-72
2022/03/21 09:16:39;;;;;;;;;;;;;;;17.01;15.00;102868.16;5024004;28;19913;-71
2022/03/21 09:19:23;;;;;;;;;;;;;;;16.90;13.79;102866.72;5032474;28;19913;-72
2022/03/21 09:22:08;;;;;;;;;;;;;;;17.61;15.04;102867.97;5032817;28;19917;-72
2022/03/21 09:24:52;;;;;;;;;;;;;;;17.79;15.38;102867.00;5032187;28;20399;-72
2022/03/21 09:27:41;;;;;;;;;;;;;;;17.72;14.13;102861.13;5028920;28;19917;-72
2022/03/21 09:30:25;;;;;;;;;;;;;;;16.14;14.49;102859.88;5024231;28;19917;-73
2022/03/21 09:33:10;;;;;;;;;;;;;;;16.94;14.24;102865.00;5031240;28;19913;-72
2022/03/21 09:35:54;;;;;;;;;;;;;;;16.89;14.91;102864.28;5059011;22;19924;-75
2022/03/21 09:38:38;;;;;;;;;;;;;;;17.00;13.52;102860.22;5031305;28;19917;-75
2022/03/21 09:41:25;;;;;;;;;;;;;;;17.07;14.09;102844.91;5040773;28;19913;-75
2022/03/21 09:44:10;;;;;;;;;;;;;;;16.57;14.92;102854.13;5044565;28;20291;-75
2022/03/21 09:46:56;;;;;;;;;;;;;;;16.05;15.19;102853.41;5044572;28;20292;-75
2022/03/21 09:49:41;;;;;;;;;;;;;;;16.41;15.39;102858.28;5038417;28;20291;-75
2022/03/21 09:52:27;;;;;;;;;;;;;;;16.82;14.80;102850.94;5046494;28;20324;-75
2022/03/21 09:55:11;;;;;;;;;;;;;;;16.58;15.12;102847.53;5041846;28;19976;-75
2022/03/21 09:57:56;;;;;;;;;;;;;;;16.89;14.88;102845.84;5054189;28;20272;-75
2022/03/21 10:00:42;;;;;;;;;;;;;;;16.51;15.15;102836.13;5043239;28;20275;-75
2022/03/21 10:03:26;;;;;;;;;;;;;;;16.96;15.81;102840.78;5023245;28;20316;-73
2022/03/21 10:06:29;;;;;;;;;;;;;;;16.55;15.15;102840.72;5035736;28;19913;-75
2022/03/21 10:09:18;;;;;;;;;;;;;;;16.83;16.39;102838.00;5035551;28;19913;-75
2022/03/21 10:12:08;;;;;;;;;;;;;;;16.95;17.58;102836.38;5035732;28;20272;-74
2022/03/21 10:14:55;;;;;;;;;;;;;;;17.44;15.47;102841.09;5036436;28;19921;-76
2022/03/21 10:17:39;;;;;;;;;;;;;;;17.38;15.05;102836.81;5043338;28;19920;-77
2022/03/21 10:20:31;;;;;;;;;;;;;;;17.42;14.49;102837.03;5058735;28;19916;-74
2022/03/21 10:23:17;;;;;;;;;;;;;;;16.58;15.39;102831.06;5055523;28;19917;-76
2022/03/21 10:26:23;;;;;;;;;;;;;;;16.88;14.40;102830.47;5058562;28;19916;-76
2022/03/21 10:29:11;;;;;;;;;;;;;;;16.70;14.86;102825.91;5036193;28;19917;-75
2022/03/21 10:32:01;;;;;;;;;;;;;;;17.95;13.92;102824.22;5049807;28;19913;-78
2022/03/21 10:34:59;;;;;;;;;;;;;;;18.57;14.06;102828.97;5042458;28;19913;-76
2022/03/21 10:37:46;;;;;;;;;;;;;;;22.13;12.19;102828.91;5043021;28;19912;-75
2022/03/21 10:40:33;;;;;;;;;;;;;;;27.09;8.14;102835.09;5055213;28;19913;-74
2022/03/21 10:43:19;;;;;;;;;;;;;;;28.65;7.90;102834.88;5055230;28;19917;-74
2022/03/21 10:46:08;;;;;;;;;;;;;;;31.11;6.28;102848.53;5055241;28;19913;-74
2022/03/21 10:49:07;;;;;;;;;;;;;;;33.91;5.07;102850.69;5055302;28;19912;-76
2022/03/21 10:51:54;;;;;;;;;;;;;;;34.41;4.26;102846.31;5055311;28;19912;-74
2022/03/21 10:54:46;;;;;;;;;;;;;;;30.41;5.69;102836.09;5047447;28;19916;-76
2022/03/21 10:57:33;;;;;;;;;;;;;;;32.46;5.31;102834.59;5055529;28;19913;-78
2022/03/21 11:00:20;;;;;;;;;;;;;;;32.18;5.29;102819.50;5052594;28;20299;-76
2022/03/21 11:03:15;;;;;;;;;;;;;;;32.58;5.36;102834.84;5042708;28;19917;-77
2022/03/21 11:06:00;;;;;;;;;;;;;;;34.98;4.06;102829.16;5055595;28;20550;-76
2022/03/21 11:08:47;;;;;;;;;;;;;;;35.08;4.08;102828.97;5061644;28;19912;-79
2022/03/21 11:11:33;;;;;;;;;;;;;;;32.64;5.69;102818.34;5039315;28;20303;-78
2022/03/21 11:14:18;;;;;;;;;;;;;;;33.95;4.95;102819.56;5031361;28;19913;-77
2022/03/21 11:17:04;;;;;;;;;;;;;;;34.17;4.62;102817.22;5045151;28;19913;-79
2022/03/21 11:19:49;;;;;;;;;;;;;;;34.53;4.47;102812.59;5045215;28;19913;-79
2022/03/21 11:22:34;;;;;;;;;;;;;;;35.52;3.98;102815.53;5044547;28;19917;-78
2022/03/21 11:25:21;;;;;;;;;;;;;;;36.79;3.60;102812.44;5044037;28;20388;-78
2022/03/21 11:28:09;;;;;;;;;;;;;;;34.85;3.92;102799.91;5058971;28;19913;-80
2022/03/21 11:31:12;;;;;;;;;;;;;;;34.99;4.11;102794.78;5055480;28;19912;-79
2022/03/21 11:34:15;;;;;;;;;;;;;;;36.13;3.69;102801.56;5059419;28;19912;-80
2022/03/21 11:37:00;;;;;;;;;;;;;;;35.88;3.69;102790.06;5054488;28;19913;-78
2022/03/21 11:39:44;;;;;;;;;;;;;;;35.65;3.89;102793.00;5052572;28;19912;-80
2022/03/21 11:42:31;;;;;;;;;;;;;;;36.29;3.92;102790.25;5058787;28;19920;-77
2022/03/21 11:45:20;;;;;;;;;;;;;;;35.71;3.85;102779.97;5059528;28;19912;-77
2022/03/21 11:48:17;;;;;;;;;;;;;;;35.16;4.10;102784.31;5062408;28;19913;-78
2022/03/21 11:51:20;;;;;;;;;;;;;;;35.69;3.93;102768.25;5058151;28;19920;-79
2022/03/21 11:54:07;;;;;;;;;;;;;;;36.29;3.86;102769.63;5055369;28;20131;-79
2022/03/21 11:56:53;;;;;;;;;;;;;;;33.88;4.77;102758.38;5057100;28;19912;-79
2022/03/21 11:59:39;;;;;;;;;;;;;;;34.23;4.26;102759.06;5062851;28;19912;-80
2022/03/21 12:02:27;;;;;;;;;;;;;;;33.99;4.50;102761.00;5047192;28;19917;-77
2022/03/21 12:05:12;;;;;;;;;;;;;;;36.33;3.82;102759.78;5044890;28;19917;-80
2022/03/21 12:08:16;;;;;;;;;;;;;;;35.03;3.90;102746.63;5042984;28;19913;-80
2022/03/21 12:11:01;;;;;;;;;;;;;;;35.82;3.77;102743.66;5057206;28;19913;-81
2022/03/21 12:13:46;;;;;;;;;;;;;;;37.11;3.59;102751.97;5057861;28;19913;-79
2022/03/21 12:16:35;;;;;;;;;;;;;;;36.13;3.83;102736.41;5063955;28;20380;-80
2022/03/21 12:19:20;;;;;;;;;;;;;;;35.75;4.07;102733.31;5059692;28;19912;-80
2022/03/21 12:22:23;;;;;;;;;;;;;;;36.08;4.05;102725.59;5061230;28;19913;-77
2022/03/21 12:25:11;;;;;;;;;;;;;;;34.90;4.38;102725.88;5066655;28;19913;-80
2022/03/21 12:27:59;;;;;;;;;;;;;;;34.55;4.58;102716.84;5057246;28;19913;-79
2022/03/21 12:30:50;;;;;;;;;;;;;;;35.00;4.21;102724.88;5060288;28;19912;-79
2022/03/21 12:33:34;;;;;;;;;;;;;;;34.93;4.56;102710.88;5056146;28;19913;-78
2022/03/21 12:36:34;;;;;;;;;;;;;;;35.32;4.14;102705.19;5054868;28;19912;-80
2022/03/21 12:39:19;;;;;;;;;;;;;;;34.01;4.82;102702.09;5057599;28;19913;-80
2022/03/21 12:42:03;;;;;;;;;;;;;;;32.77;5.06;102709.47;5060073;28;19917;-79
2022/03/21 12:44:48;;;;;;;;;;;;;;;30.88;6.11;102694.38;5057869;28;19913;-81
2022/03/21 12:47:35;;;;;;;;;;;;;;;31.24;5.70;102690.22;5056735;28;19913;-78
2022/03/21 12:50:21;;;;;;;;;;;;;;;31.61;5.83;102692.41;5055724;28;19913;-80
2022/03/21 12:53:07;;;;;;;;;;;;;;;32.06;5.75;102682.00;5056477;28;19912;-79
2022/03/21 12:56:00;;;;;;;;;;;;;;;32.40;5.29;102684.13;5044440;28;20364;-79
2022/03/21 12:58:46;;;;;;;;;;;;;;;31.64;5.99;102671.13;5058147;28;19912;-79
2022/03/21 13:01:32;;;;;;;;;;;;;;;30.66;6.23;102667.56;5055819;28;19913;-81
2022/03/21 13:10:36;;;;;;;;;;;;;;;29.62;7.11;102660.41;5056853;28;19913;-78
2022/03/21 13:13:22;;;;;;;;;;;;;;;28.79;7.56;102650.19;5049105;28;19913;-79
2022/03/21 13:16:09;;;;;;;;;;;;;;;28.52;7.54;102651.59;5063890;28;19896;-82
2022/03/21 13:18:56;;;;;;;;;;;;;;;28.70;7.94;102651.72;5048374;28;19900;-78
2022/03/21 13:21:40;;;;;;;;;;;;;;;29.39;7.18;102641.16;5060958;28;19913;-78
2022/03/21 13:24:45;;;;;;;;;;;;;;;26.88;8.52;102636.50;5050653;28;19917;-81
2022/03/21 13:27:34;;;;;;;;;;;;;;;26.67;8.72;102635.03;5048237;28;19916;-81
2022/03/21 13:30:19;;;;;;;;;;;;;;;25.21;9.54;102631.00;5037702;28;19913;-81
2022/03/21 13:33:04;;;;;;;;;;;;;;;25.01;9.46;102626.63;5048583;28;19913;-80
2022/03/21 13:35:50;;;;;;;;;;;;;;;24.37;10.07;102613.34;5047597;28;19917;-79
2022/03/21 13:38:37;;;;;;;;;;;;;;;24.19;10.47;102612.91;5045669;28;19913;-80
2022/03/21 13:41:22;;;;;;;;;;;;;;;24.49;10.16;102614.00;5036204;28;19913;-81
2022/03/21 13:44:06;;;;;;;;;;;;;;;25.59;9.59;102604.28;5047319;28;19917;-80
2022/03/21 13:47:00;;;;;;;;;;;;;;;25.23;9.74;102608.38;5047180;28;19912;-78
2022/03/21 13:49:46;;;;;;;;;;;;;;;24.15;10.73;102596.13;5046387;28;19913;-78
2022/03/21 13:52:46;;;;;;;;;;;;;;;23.75;10.77;102595.56;5037190;28;20363;-79
2022/03/21 13:55:30;;;;;;;;;;;;;;;22.79;11.32;102592.97;5067049;28;19912;-80
2022/03/21 13:58:23;;;;;;;;;;;;;;;23.47;11.36;102583.75;5050602;28;19912;-80
2022/03/21 14:01:18;;;;;;;;;;;;;;;22.41;11.32;102587.84;5058615;28;19912;-80
2022/03/21 14:04:16;;;;;;;;;;;;;;;20.90;12.67;102579.63;5063026;28;19917;-80
2022/03/21 14:07:02;;;;;;;;;;;;;;;20.65;13.14;102574.31;5045072;28;19912;-79
2022/03/21 14:09:50;;;;;;;;;;;;;;;21.76;13.00;102575.09;5051572;28;19912;-79
2022/03/21 14:12:35;;;;;;;;;;;;;;;21.74;12.71;102571.84;5064457;28;19916;-78
2022/03/21 14:15:22;;;;;;;;;;;;;;;21.13;13.06;102570.94;5049285;28;20311;-79
2022/03/21 14:18:07;;;;;;;;;;;;;;;20.64;13.26;102570.75;5046300;28;19913;-78
2022/03/21 14:20:52;;;;;;;;;;;;;;;21.09;13.14;102568.03;5061741;28;19925;-78
2022/03/21 14:23:39;;;;;;;;;;;;;;;20.90;13.15;102567.75;5060295;28;19924;-78
2022/03/21 14:26:30;;;;;;;;;;;;;;;20.94;12.97;102560.38;5055580;28;19912;-78
2022/03/21 14:29:16;;;;;;;;;;;;;;;20.11;13.59;102554.88;5057128;28;20333;-79
2022/03/21 14:32:00;;;;;;;;;;;;;;;20.05;13.72;102547.91;5068209;28;19916;-79
2022/03/21 14:34:45;;;;;;;;;;;;;;;20.24;13.49;102545.50;5067198;28;19912;-79
2022/03/21 14:37:29;;;;;;;;;;;;;;;20.25;14.02;102544.38;5052877;28;19913;-79
2022/03/21 14:40:14;;;;;;;;;;;;;;;19.58;14.19;102547.19;5052183;28;19913;-79
2022/03/21 14:43:00;;;;;;;;;;;;;;;18.88;14.43;102542.19;5031572;28;19921;-78
2022/03/21 14:45:45;;;;;;;;;;;;;;;19.86;14.23;102544.78;5030045;28;19913;-78
2022/03/21 14:48:30;;;;;;;;;;;;;;;20.13;14.04;102541.50;5029738;28;20286;-79